Time;durP1;ratioP1;P1;durP2;ratioP2;P2;SDS_P1;SDS_P2;PMS_P1;PMS_P2;Temp;Humidity;BMP_temperature;BMP_pressure;BME280_temperature;BME280_humidity;BME280_pressure;Samples;Min_cycle;Max_cycle;Signal;HPM_P1;HPM_P2
2021/03/02 00:00:30;;;;;;;24.52;13.68;;;21.50;34.50;;;;;;5093839;28;20121;-73
2021/03/02 00:02:55;;;;;;;24.27;13.57;;;21.50;34.50;;;;;;5093444;28;20020;-73
2021/03/02 00:05:21;;;;;;;20.83;11.65;;;21.50;34.50;;;;;;5093105;28;20035;-74
2021/03/02 00:07:46;;;;;;;26.23;14.98;;;21.50;34.50;;;;;;5088335;28;20032;-74
2021/03/02 00:10:21;;;;;;;25.92;14.07;;;21.50;34.50;;;;;;5093113;28;20116;-75
2021/03/02 00:12:47;;;;;;;26.08;13.60;;;21.50;34.50;;;;;;5071816;28;20032;-73
2021/03/02 00:15:13;;;;;;;25.13;13.85;;;21.50;34.50;;;;;;5091744;28;20072;-73
2021/03/02 00:17:48;;;;;;;25.40;14.05;;;21.50;34.50;;;;;;5084553;28;20012;-73
2021/03/02 00:20:20;;;;;;;25.40;13.15;;;21.50;34.50;;;;;;5084382;28;20495;-73
2021/03/02 00:23:07;;;;;;;24.83;12.40;;;21.40;34.40;;;;;;5091372;28;20096;-73
2021/03/02 00:25:55;;;;;;;25.58;11.45;;;21.40;34.50;;;;;;5080790;28;20404;-74
2021/03/02 00:28:27;;;;;;;21.65;12.05;;;21.40;34.50;;;;;;5093138;28;20085;-73
2021/03/02 00:30:53;;;;;;;22.85;12.30;;;21.40;34.50;;;;;;5082339;28;20032;-73
2021/03/02 00:33:22;;;;;;;23.15;11.65;;;21.40;34.50;;;;;;5066567;28;20111;-73
2021/03/02 00:35:48;;;;;;;21.55;11.77;;;21.40;34.50;;;;;;5090255;28;20035;-74
2021/03/02 00:38:13;;;;;;;23.52;12.55;;;21.40;34.50;;;;;;5071424;28;20044;-73
2021/03/02 00:40:39;;;;;;;23.55;12.77;;;21.40;34.50;;;;;;5091844;28;20039;-73
2021/03/02 00:43:05;;;;;;;23.05;12.77;;;21.30;34.50;;;;;;5092953;28;20028;-73
2021/03/02 00:45:31;;;;;;;22.23;12.35;;;21.30;34.50;;;;;;5091148;28;20127;-73
2021/03/02 00:47:56;;;;;;;18.45;10.52;;;21.30;34.50;;;;;;5093412;28;20031;-73
2021/03/02 00:50:26;;;;;;;20.23;9.95;;;21.30;34.50;;;;;;5088354;28;20079;-73
2021/03/02 00:52:51;;;;;;;18.50;10.57;;;21.30;34.60;;;;;;5075377;28;20487;-73
2021/03/02 00:55:17;;;;;;;20.23;11.20;;;21.30;34.50;;;;;;5084632;28;20110;-74
2021/03/02 00:57:46;;;;;;;17.33;10.15;;;21.30;34.60;;;;;;5091885;28;20099;-73
2021/03/02 01:00:12;;;;;;;17.17;10.45;;;21.20;34.50;;;;;;5086060;28;20024;-74
2021/03/02 01:02:38;;;;;;;16.63;9.57;;;21.20;34.50;;;;;;5084858;28;20028;-74
2021/03/02 01:05:05;;;;;;;25.25;12.20;;;21.20;34.50;;;;;;5088394;28;20495;-74
2021/03/02 01:07:30;;;;;;;23.88;11.57;;;21.20;34.50;;;;;;5092596;28;20028;-74
2021/03/02 01:09:56;;;;;;;20.52;11.38;;;21.20;34.50;;;;;;5069901;28;20025;-75
2021/03/02 01:12:26;;;;;;;21.77;12.63;;;21.20;34.60;;;;;;5068663;28;20045;-74
2021/03/02 01:15:01;;;;;;;18.55;11.05;;;21.20;34.50;;;;;;5076923;28;20086;-74
2021/03/02 01:17:26;;;;;;;20.02;9.95;;;21.20;34.50;;;;;;5091128;28;20028;-75
2021/03/02 01:19:52;;;;;;;19.45;9.77;;;21.20;34.50;;;;;;5089887;28;20105;-74
2021/03/02 01:22:18;;;;;;;23.25;11.05;;;21.10;34.50;;;;;;5090597;28;20476;-75
2021/03/02 01:24:44;;;;;;;25.75;12.43;;;21.10;34.50;;;;;;5074930;28;20406;-74
2021/03/02 01:27:09;;;;;;;19.70;10.82;;;21.10;34.50;;;;;;5093530;28;20028;-75
2021/03/02 01:29:35;;;;;;;21.33;11.07;;;21.10;34.50;;;;;;5083195;28;20044;-74
2021/03/02 01:32:01;;;;;;;18.17;11.18;;;21.10;34.50;;;;;;5079727;28;20055;-74
2021/03/02 01:34:26;;;;;;;22.73;11.90;;;21.10;34.50;;;;;;5082861;28;20020;-73
2021/03/02 01:37:14;;;;;;;18.45;10.68;;;21.10;34.50;;;;;;5091576;28;20036;-73
2021/03/02 01:39:39;;;;;;;19.73;11.38;;;21.10;34.40;;;;;;5086832;28;20026;-73
2021/03/02 01:42:05;;;;;;;20.65;11.60;;;21.10;34.40;;;;;;5092409;28;20473;-73
2021/03/02 01:44:30;;;;;;;21.83;10.88;;;21.10;34.40;;;;;;5090651;28;20032;-74
2021/03/02 01:46:56;;;;;;;18.73;11.07;;;21.10;34.40;;;;;;5073625;28;20491;-73
2021/03/02 01:49:22;;;;;;;19.25;11.43;;;21.10;34.40;;;;;;5092394;28;20027;-73
2021/03/02 01:51:48;;;;;;;21.35;11.68;;;21.10;34.30;;;;;;5084108;28;20076;-73
2021/03/02 01:54:14;;;;;;;18.27;11.13;;;21.10;34.30;;;;;;5090037;28;20073;-73
2021/03/02 01:56:40;;;;;;;20.55;11.23;;;21.10;34.30;;;;;;5088768;28;20043;-73
2021/03/02 01:59:06;;;;;;;21.92;11.63;;;21.10;34.30;;;;;;5092388;28;20491;-74
2021/03/02 02:01:32;;;;;;;17.33;10.63;;;21.00;34.30;;;;;;5067086;28;20032;-74
2021/03/02 02:04:15;;;;;;;20.33;11.25;;;21.10;34.40;;;;;;5074050;28;20032;-73
2021/03/02 02:06:53;;;;;;;21.98;10.57;;;21.00;34.30;;;;;;5091459;28;20038;-73
2021/03/02 02:09:47;;;;;;;20.20;11.23;;;21.00;34.40;;;;;;5089267;28;20035;-74
2021/03/02 02:12:27;;;;;;;22.30;11.70;;;21.00;34.30;;;;;;5090899;28;20028;-73
2021/03/02 02:14:58;;;;;;;18.50;9.73;;;21.00;34.40;;;;;;5090197;28;20015;-74
2021/03/02 02:17:59;;;;;;;20.08;10.70;;;21.00;34.40;;;;;;5089658;28;20024;-73
2021/03/02 02:20:28;;;;;;;16.48;10.43;;;21.00;34.40;;;;;;5082673;28;20027;-73
2021/03/02 02:23:08;;;;;;;23.60;12.60;;;20.90;34.40;;;;;;5088374;28;20032;-73
2021/03/02 02:25:49;;;;;;;21.90;11.57;;;20.90;34.40;;;;;;5090808;28;20515;-75
2021/03/02 02:28:15;;;;;;;18.65;11.18;;;20.90;34.40;;;;;;5083626;28;20116;-74
2021/03/02 02:30:42;;;;;;;20.38;10.40;;;20.90;34.40;;;;;;5064921;28;20535;-74
2021/03/02 02:33:08;;;;;;;19.45;11.93;;;20.90;34.40;;;;;;5080887;28;20109;-74
2021/03/02 02:35:34;;;;;;;20.77;11.02;;;20.90;34.40;;;;;;5071513;28;20033;-74
2021/03/02 02:38:21;;;;;;;18.60;9.23;;;20.90;34.50;;;;;;5089947;28;20035;-74
2021/03/02 02:40:48;;;;;;;16.33;9.98;;;20.90;34.50;;;;;;5089542;28;20507;-74
2021/03/02 02:43:15;;;;;;;17.90;9.60;;;20.80;34.50;;;;;;5088836;28;20107;-73
2021/03/02 02:45:40;;;;;;;16.10;9.50;;;20.80;34.50;;;;;;5087814;28;20032;-74
2021/03/02 02:48:07;;;;;;;18.20;9.10;;;20.80;34.50;;;;;;5091057;28;20035;-74
2021/03/02 02:50:32;;;;;;;15.98;9.48;;;20.80;34.50;;;;;;5088191;28;20052;-74
2021/03/02 02:52:58;;;;;;;16.63;9.82;;;20.80;34.50;;;;;;5090829;28;20074;-74
2021/03/02 02:55:30;;;;;;;17.85;9.43;;;20.80;34.50;;;;;;5089944;28;20062;-74
2021/03/02 02:57:56;;;;;;;16.70;10.05;;;20.80;34.50;;;;;;5089926;28;20008;-74
2021/03/02 03:00:22;;;;;;;15.75;9.18;;;20.70;34.50;;;;;;5084986;28;21001;-74
2021/03/02 03:02:49;;;;;;;15.20;8.98;;;20.70;34.50;;;;;;5088106;28;20017;-74
2021/03/02 03:05:20;;;;;;;17.08;9.45;;;20.70;35.10;;;;;;5085934;28;20027;-73
2021/03/02 03:07:56;;;;;;;16.35;8.75;;;20.70;34.50;;;;;;5091102;28;20031;-72
2021/03/02 03:10:23;;;;;;;17.05;8.80;;;20.70;34.50;;;;;;5087392;28;20020;-72
2021/03/02 03:12:49;;;;;;;13.00;8.50;;;20.70;34.50;;;;;;5071211;28;20020;-72
2021/03/02 03:15:16;;;;;;;15.80;8.60;;;20.70;34.50;;;;;;5088769;28;20024;-73
2021/03/02 03:17:44;;;;;;;13.60;7.68;;;20.70;34.40;;;;;;5089808;28;20024;-73
2021/03/02 03:20:10;;;;;;;15.02;9.18;;;20.70;34.40;;;;;;5090658;28;20039;-74
2021/03/02 03:22:36;;;;;;;15.55;9.10;;;20.70;34.40;;;;;;5089382;28;20031;-74
2021/03/02 03:25:03;;;;;;;13.85;8.55;;;20.70;34.40;;;;;;5092362;28;20036;-75
2021/03/02 03:27:29;;;;;;;16.30;9.18;;;20.70;34.30;;;;;;5085808;28;20392;-75
2021/03/02 03:29:55;;;;;;;19.33;11.30;;;20.70;34.30;;;;;;5078253;28;20057;-74
2021/03/02 03:32:20;;;;;;;17.67;9.80;;;20.70;34.30;;;;;;5083060;28;20559;-75
2021/03/02 03:34:46;;;;;;;18.00;10.30;;;20.70;34.30;;;;;;5087974;28;20016;-73
2021/03/02 03:37:45;;;;;;;19.13;11.00;;;20.70;34.30;;;;;;5092384;28;20020;-73
2021/03/02 03:40:12;;;;;;;24.83;12.07;;;20.70;34.30;;;;;;5088248;28;20549;-73
2021/03/02 03:42:37;;;;;;;23.55;13.48;;;20.70;34.30;;;;;;5091023;28;20045;-73
2021/03/02 03:45:04;;;;;;;19.80;11.02;;;20.60;34.20;;;;;;5092286;28;20115;-73
2021/03/02 03:47:30;;;;;;;25.13;12.38;;;20.60;34.20;;;;;;5093337;28;20111;-73
2021/03/02 03:49:55;;;;;;;24.92;13.25;;;20.60;34.20;;;;;;5093888;28;20162;-73
2021/03/02 03:52:27;;;;;;;22.92;12.90;;;20.60;34.20;;;;;;5092325;28;20043;-73
2021/03/02 03:54:53;;;;;;;23.02;13.13;;;20.60;34.20;;;;;;5087131;28;20028;-74
2021/03/02 03:57:19;;;;;;;20.25;11.63;;;20.60;34.20;;;;;;5072382;28;20020;-74
2021/03/02 03:59:44;;;;;;;17.60;9.80;;;20.60;34.20;;;;;;5092630;28;20024;-74
2021/03/02 04:02:10;;;;;;;18.05;9.63;;;20.60;34.20;;;;;;5084105;28;20028;-74
2021/03/02 04:04:48;;;;;;;16.80;10.45;;;20.60;34.30;;;;;;5052639;28;20032;-74
2021/03/02 04:07:14;;;;;;;19.38;10.23;;;20.60;34.30;;;;;;5092494;28;20546;-74
2021/03/02 04:09:39;;;;;;;15.35;9.13;;;20.50;34.30;;;;;;5092231;28;20024;-74
2021/03/02 04:12:06;;;;;;;13.55;9.05;;;20.50;34.30;;;;;;5091814;28;20507;-74
2021/03/02 04:14:32;;;;;;;18.23;10.05;;;20.60;34.30;;;;;;5078815;28;20511;-74
2021/03/02 04:16:58;;;;;;;23.02;10.40;;;20.50;34.30;;;;;;5091218;28;20024;-74
2021/03/02 04:19:23;;;;;;;16.80;10.23;;;20.60;34.40;;;;;;5092686;28;20031;-74
2021/03/02 04:21:49;;;;;;;15.23;9.80;;;20.50;34.30;;;;;;5094285;28;20042;-74
2021/03/02 04:24:24;;;;;;;18.35;9.05;;;20.50;34.30;;;;;;5091429;28;20054;-74
2021/03/02 04:26:49;;;;;;;14.35;8.57;;;20.50;34.30;;;;;;5084966;28;20070;-74
2021/03/02 04:29:18;;;;;;;14.02;8.57;;;20.40;34.30;;;;;;5092864;28;20020;-74
2021/03/02 04:31:43;;;;;;;15.38;8.63;;;20.40;34.30;;;;;;5093272;28;20102;-74
2021/03/02 04:34:09;;;;;;;13.48;8.77;;;20.50;34.40;;;;;;5090907;28;20020;-73
2021/03/02 04:36:34;;;;;;;18.00;10.07;;;20.40;35.00;;;;;;5083384;28;20027;-73
2021/03/02 04:39:00;;;;;;;17.67;9.88;;;20.40;34.40;;;;;;5086806;28;20392;-74
2021/03/02 04:41:26;;;;;;;19.30;9.90;;;20.40;34.30;;;;;;5092677;28;20480;-73
2021/03/02 04:43:51;;;;;;;15.20;8.27;;;20.40;34.40;;;;;;5093226;28;20031;-74
2021/03/02 04:46:19;;;;;;;15.77;9.93;;;20.40;34.40;;;;;;5093325;28;20392;-74
2021/03/02 04:48:45;;;;;;;19.65;10.30;;;20.40;34.40;;;;;;5092534;28;20020;-74
2021/03/02 04:51:10;;;;;;;16.27;9.32;;;20.40;34.40;;;;;;5091713;28;20071;-74
2021/03/02 04:53:36;;;;;;;19.65;10.35;;;20.40;34.40;;;;;;5092683;28;20056;-74
2021/03/02 04:56:02;;;;;;;19.92;11.13;;;20.40;34.40;;;;;;5090613;28;20020;-73
2021/03/02 04:58:27;;;;;;;18.77;10.18;;;20.40;34.30;;;;;;5090245;28;20031;-74
2021/03/02 05:00:53;;;;;;;1.17;0.70;;;20.40;34.30;;;;;;5088155;28;20110;-73
2021/03/02 05:03:19;;;;;;;1.23;0.60;;;20.40;34.30;;;;;;5088192;28;20027;-73
2021/03/02 05:05:44;;;;;;;0.73;0.30;;;20.40;34.40;;;;;;5086063;28;20033;-73
2021/03/02 05:08:10;;;;;;;8.48;4.55;;;20.40;34.60;;;;;;5083920;28;20036;-75
2021/03/02 05:10:35;;;;;;;15.38;11.35;;;20.40;34.80;;;;;;5091187;28;20028;-74
2021/03/02 05:13:01;;;;;;;0.40;0.30;;;20.40;34.60;;;;;;5091496;28;20028;-74
2021/03/02 05:15:27;;;;;;;0.63;0.40;;;20.60;34.60;;;;;;5094015;28;20030;-74
2021/03/02 05:17:52;;;;;;;0.73;0.43;;;20.60;34.50;;;;;;5073236;28;20510;-74
2021/03/02 05:20:18;;;;;;;0.35;0.35;;;20.70;34.50;;;;;;5092472;28;20028;-73
2021/03/02 05:22:44;;;;;;;3.60;1.00;;;20.70;34.30;;;;;;5096360;28;20567;-74
2021/03/02 05:25:10;;;;;;;1.63;0.68;;;20.90;34.30;;;;;;5073277;28;20055;-73
2021/03/02 05:27:36;;;;;;;0.82;0.65;;;21.00;34.20;;;;;;5091184;28;20487;-73
2021/03/02 05:30:02;;;;;;;1.02;0.77;;;21.00;34.00;;;;;;5088073;28;20052;-74
2021/03/02 05:32:27;;;;;;;1.58;1.30;;;21.10;33.90;;;;;;5089140;28;20491;-73
2021/03/02 05:34:53;;;;;;;0.68;0.45;;;21.20;33.80;;;;;;5088624;28;20608;-74
2021/03/02 05:37:18;;;;;;;0.45;0.45;;;21.20;33.70;;;;;;5083694;28;20012;-74
2021/03/02 05:39:44;;;;;;;4.53;1.55;;;21.30;33.60;;;;;;5087438;28;20043;-73
2021/03/02 05:42:10;;;;;;;1.45;1.13;;;21.30;33.40;;;;;;5090722;28;20031;-73
2021/03/02 05:44:35;;;;;;;1.00;0.70;;;21.40;33.40;;;;;;5091105;28;20028;-73
2021/03/02 05:47:02;;;;;;;0.35;0.35;;;21.40;33.20;;;;;;5088766;28;20507;-74
2021/03/02 05:49:28;;;;;;;1.35;0.75;;;21.50;33.10;;;;;;5073976;28;20044;-72
2021/03/02 05:51:54;;;;;;;12.30;7.95;;;21.60;33.00;;;;;;5089517;28;20521;-72
2021/03/02 05:54:19;;;;;;;14.93;10.52;;;21.60;33.00;;;;;;5090653;28;20081;-72
2021/03/02 05:56:45;;;;;;;2.15;0.77;;;21.60;32.90;;;;;;5090459;28;20538;-72
2021/03/02 05:59:10;;;;;;;0.63;0.40;;;21.70;32.70;;;;;;5087795;28;20024;-72
2021/03/02 06:01:36;;;;;;;1.55;1.08;;;21.80;32.70;;;;;;5085530;28;20449;-72
2021/03/02 06:04:03;;;;;;;0.75;0.30;;;21.80;32.50;;;;;;5089073;28;20044;-73
2021/03/02 06:06:28;;;;;;;0.95;0.57;;;21.90;32.50;;;;;;5089990;28;20032;-72
2021/03/02 06:08:55;;;;;;;1.00;0.85;;;21.90;32.50;;;;;;5090123;28;20028;-72
2021/03/02 06:11:27;;;;;;;0.75;0.65;;;21.90;32.40;;;;;;5094184;28;20126;-76
2021/03/02 06:13:53;;;;;;;15.27;10.82;;;22.00;32.40;;;;;;5090397;28;20036;-72
2021/03/02 06:16:18;;;;;;;2.03;1.20;;;22.00;32.30;;;;;;5090571;28;20023;-74
2021/03/02 06:18:52;;;;;;;11.23;0.93;;;22.00;32.30;;;;;;5073274;28;20036;-74
2021/03/02 06:21:18;;;;;;;0.38;0.38;;;22.10;32.20;;;;;;5087550;28;20032;-75
2021/03/02 06:23:53;;;;;;;0.75;0.65;;;22.10;32.20;;;;;;5071418;28;20051;-74
2021/03/02 06:26:25;;;;;;;13.45;10.10;;;22.10;32.20;;;;;;5089771;28;20023;-73
2021/03/02 06:28:52;;;;;;;1.85;0.40;;;22.10;32.20;;;;;;5083444;28;20028;-73
2021/03/02 06:31:34;;;;;;;1.10;0.52;;;22.00;32.10;;;;;;5093214;28;20078;-73
2021/03/02 06:34:06;;;;;;;0.43;0.43;;;22.00;32.10;;;;;;5086866;28;20373;-73
2021/03/02 06:36:32;;;;;;;0.80;0.43;;;22.10;32.20;;;;;;5090133;28;21663;-73
2021/03/02 06:38:57;;;;;;;0.60;0.60;;;22.10;32.20;;;;;;5092057;28;20031;-75
2021/03/02 06:42:13;;;;;;;14.90;10.82;;;22.10;32.10;;;;;;5091644;28;20028;-74
2021/03/02 06:44:51;;;;;;;0.75;0.30;;;22.10;32.20;;;;;;5086683;28;20028;-75
2021/03/02 06:47:58;;;;;;;2.38;1.25;;;22.10;32.20;;;;;;5087446;28;20036;-74
2021/03/02 06:50:29;;;;;;;2.95;2.20;;;22.10;32.20;;;;;;5085682;28;20028;-74
2021/03/02 06:52:55;;;;;;;15.30;10.45;;;22.10;32.20;;;;;;5085025;28;20032;-74
2021/03/02 06:55:26;;;;;;;0.38;0.38;;;22.10;32.20;;;;;;5079996;28;20025;-74
2021/03/02 06:57:52;;;;;;;1.20;0.82;;;22.10;32.20;;;;;;5079999;28;20115;-74
2021/03/02 07:00:32;;;;;;;1.65;0.82;;;22.10;32.20;;;;;;5076014;28;20078;-74
2021/03/02 07:03:24;;;;;;;1.30;0.65;;;22.20;32.10;;;;;;5091700;28;20503;-74
2021/03/02 07:05:50;;;;;;;0.35;0.35;;;22.30;32.10;;;;;;5087570;28;20047;-74
2021/03/02 07:08:16;;;;;;;0.55;0.55;;;22.30;32.00;;;;;;5089952;28;20113;-74
2021/03/02 07:10:42;;;;;;;2.28;0.90;;;22.30;31.90;;;;;;5075708;28;20016;-74
2021/03/02 07:13:10;;;;;;;0.40;0.40;;;22.30;31.70;;;;;;5094738;28;20035;-74
2021/03/02 07:15:39;;;;;;;3.05;1.08;;;22.40;31.80;;;;;;5059682;28;20047;-74
2021/03/02 07:18:06;;;;;;;0.65;0.60;;;22.40;31.70;;;;;;5091880;28;20024;-74
2021/03/02 07:20:32;;;;;;;1.00;0.70;;;22.40;31.60;;;;;;5092923;28;20433;-74
2021/03/02 07:23:05;;;;;;;0.40;0.40;;;22.40;31.60;;;;;;5074587;28;20027;-73
2021/03/02 07:25:37;;;;;;;0.68;0.43;;;22.40;31.50;;;;;;5093856;28;20544;-74
2021/03/02 07:28:03;;;;;;;1.55;0.55;;;22.40;31.50;;;;;;5085144;28;20494;-73
2021/03/02 07:30:28;;;;;;;2.47;1.20;;;22.40;31.50;;;;;;5081948;28;20100;-74
2021/03/02 07:32:54;;;;;;;0.73;0.55;;;22.50;31.60;;;;;;5094758;28;20112;-73
2021/03/02 07:35:21;;;;;;;0.82;0.45;;;22.40;31.40;;;;;;5093098;28;20166;-74
2021/03/02 07:37:47;;;;;;;1.77;0.32;;;22.40;31.40;;;;;;5093058;28;20455;-73
2021/03/02 07:40:14;;;;;;;1.13;0.90;;;22.50;31.50;;;;;;5094155;28;20034;-73
2021/03/02 07:42:39;;;;;;;0.75;0.75;;;22.50;31.50;;;;;;5068652;28;20036;-73
2021/03/02 07:45:12;;;;;;;1.92;1.35;;;22.50;31.50;;;;;;5093716;28;20407;-73
2021/03/02 07:47:44;;;;;;;2.75;0.73;;;22.60;31.40;;;;;;5092550;28;20020;-71
2021/03/02 07:50:28;;;;;;;6.72;2.33;;;22.50;31.30;;;;;;5092300;28;20043;-72
2021/03/02 07:53:23;;;;;;;2.90;1.52;;;22.60;31.50;;;;;;5092843;28;20028;-74
2021/03/02 07:56:12;;;;;;;1.30;0.43;;;22.70;31.00;;;;;;5009111;28;20125;-73
2021/03/02 07:58:37;;;;;;;4.90;1.85;;;22.70;30.60;;;;;;5014718;28;20022;-73
2021/03/02 08:01:22;;;;;;;3.75;1.98;;;22.70;30.30;;;;;;5014426;28;20038;-73
2021/03/02 08:03:48;;;;;;;5.03;2.38;;;22.70;30.00;;;;;;4989172;28;20092;-72
2021/03/02 08:06:23;;;;;;;1.30;0.80;;;22.70;29.90;;;;;;5004525;28;20447;-73
2021/03/02 08:08:49;;;;;;;1.00;0.70;;;22.80;29.70;;;;;;5025740;28;20036;-73
2021/03/02 08:11:37;;;;;;;0.88;0.75;;;22.80;29.50;;;;;;5002492;28;20030;-73
2021/03/02 08:14:17;;;;;;;3.75;1.52;;;22.80;29.30;;;;;;5020669;28;20169;-73
2021/03/02 08:16:54;;;;;;;5.57;3.00;;;22.80;29.10;;;;;;5012006;28;20084;-73
2021/03/02 08:19:46;;;;;;;4.43;1.60;;;22.90;29.10;;;;;;5020781;28;20038;-73
2021/03/02 08:22:20;;;;;;;8.18;2.38;;;22.90;29.00;;;;;;5010022;28;20033;-72
2021/03/02 08:24:57;;;;;;;3.03;1.33;;;22.90;28.90;;;;;;5008730;28;20046;-73
2021/03/02 08:28:23;;;;;;;9.75;2.92;;;22.90;28.80;;;;;;5013445;28;20034;-73
2021/03/02 08:30:48;;;;;;;2.20;0.98;;;23.00;28.70;;;;;;4917142;29;20094;-73
2021/03/02 08:33:19;;;;;;;1.80;1.10;;;23.00;28.60;;;;;;4995688;28;20066;-73
2021/03/02 08:35:45;;;;;;;1.80;0.82;;;23.00;28.50;;;;;;5009021;28;20025;-72
2021/03/02 08:38:13;;;;;;;1.98;1.30;;;23.00;28.50;;;;;;5009775;28;20092;-71
2021/03/02 08:40:43;;;;;;;2.65;0.88;;;23.00;28.50;;;;;;5005290;28;20026;-72
2021/03/02 08:43:20;;;;;;;2.95;1.73;;;23.00;28.80;;;;;;5012250;28;20080;-72
2021/03/02 08:45:45;;;;;;;7.07;2.80;;;22.90;29.00;;;;;;5002130;28;20076;-71
2021/03/02 08:48:19;;;;;;;2.05;1.77;;;22.90;29.30;;;;;;5007901;28;20038;-71
2021/03/02 08:50:45;;;;;;;7.60;1.45;;;22.90;29.30;;;;;;5001743;28;20046;-71
2021/03/02 08:53:30;;;;;;;1.75;1.38;;;22.90;29.60;;;;;;5007555;28;20084;-72
2021/03/02 08:55:56;;;;;;;1.13;1.03;;;22.80;29.70;;;;;;5008936;28;20065;-71
2021/03/02 08:58:29;;;;;;;1.75;1.15;;;22.90;29.80;;;;;;4998759;28;20030;-71
2021/03/02 09:01:03;;;;;;;3.40;1.52;;;22.80;29.90;;;;;;4992861;28;20429;-71
2021/03/02 09:03:29;;;;;;;3.28;1.13;;;22.90;30.10;;;;;;5019273;28;20026;-71
2021/03/02 09:06:08;;;;;;;5.75;1.40;;;22.80;30.10;;;;;;5093583;28;20020;-71
2021/03/02 09:08:58;;;;;;;1.35;0.93;;;22.80;30.20;;;;;;5094243;28;20119;-71
2021/03/02 09:11:28;;;;;;;11.45;1.52;;;22.90;30.20;;;;;;4996499;28;20377;-71
2021/03/02 09:13:58;;;;;;;1.30;1.10;;;22.90;30.40;;;;;;4994452;28;20056;-71
2021/03/02 09:16:32;;;;;;;0.65;0.65;;;22.80;30.40;;;;;;5005086;28;20080;-74
2021/03/02 09:19:25;;;;;;;1.23;1.00;;;22.90;30.40;;;;;;5007507;28;20030;-74
2021/03/02 09:21:59;;;;;;;1.48;0.70;;;22.90;30.40;;;;;;5005634;28;20060;-74
2021/03/02 09:24:38;;;;;;;2.20;1.27;;;22.90;30.60;;;;;;5012292;28;20030;-74
2021/03/02 09:27:14;;;;;;;1.77;1.42;;;22.90;30.50;;;;;;4997686;28;20183;-74
2021/03/02 09:29:49;;;;;;;5.65;1.40;;;23.00;30.60;;;;;;4995887;28;20042;-74
2021/03/02 09:32:16;;;;;;;3.58;1.05;;;22.90;30.60;;;;;;5007145;28;20046;-74
2021/03/02 09:34:43;;;;;;;1.27;1.05;;;22.90;30.70;;;;;;4994438;28;20113;-74
2021/03/02 09:37:18;;;;;;;2.58;0.75;;;23.00;30.80;;;;;;5009815;28;20513;-74
2021/03/02 09:40:00;;;;;;;1.30;1.17;;;23.00;30.70;;;;;;4995174;28;20049;-74
2021/03/02 09:42:31;;;;;;;2.50;0.85;;;23.00;30.70;;;;;;4992919;28;20117;-74
2021/03/02 09:45:09;;;;;;;1.75;1.13;;;23.00;30.90;;;;;;4991692;28;20026;-74
2021/03/02 09:47:35;;;;;;;2.65;1.25;;;23.00;30.90;;;;;;5009898;28;20040;-74
2021/03/02 09:50:07;;;;;;;1.58;0.90;;;23.00;30.70;;;;;;5091995;28;20071;-74
2021/03/02 09:52:38;;;;;;;0.55;0.55;;;23.00;30.70;;;;;;5091099;28;20091;-74
2021/03/02 09:55:13;;;;;;;3.83;0.90;;;23.10;30.70;;;;;;5091417;28;20103;-74
2021/03/02 09:57:51;;;;;;;0.93;0.93;;;23.10;30.80;;;;;;5093524;28;20051;-74
2021/03/02 10:00:18;;;;;;;1.85;1.15;;;23.10;30.80;;;;;;5092502;28;20016;-74
2021/03/02 10:02:51;;;;;;;1.77;0.80;;;23.10;30.70;;;;;;5086234;28;20529;-74
2021/03/02 10:05:34;;;;;;;0.75;0.63;;;23.20;30.70;;;;;;5080415;28;20497;-74
2021/03/02 10:08:21;;;;;;;1.25;0.90;;;23.20;30.90;;;;;;5082896;28;20050;-74
2021/03/02 10:10:47;;;;;;;0.80;0.73;;;23.20;30.90;;;;;;5087640;28;20023;-74
2021/03/02 10:13:41;;;;;;;1.75;0.82;;;23.30;30.80;;;;;;5090066;28;20036;-74
2021/03/02 10:16:27;;;;;;;1.45;0.82;;;23.40;30.80;;;;;;5087809;28;20486;-74
2021/03/02 10:19:14;;;;;;;1.52;1.35;;;23.40;30.70;;;;;;5087746;28;20071;-74
2021/03/02 10:21:44;;;;;;;1.20;0.90;;;23.50;30.60;;;;;;5087882;28;20031;-74
2021/03/02 10:24:17;;;;;;;0.52;0.52;;;23.60;30.40;;;;;;5087751;28;20028;-73
2021/03/02 10:26:44;;;;;;;1.95;0.70;;;23.60;30.30;;;;;;5074780;28;20101;-74
2021/03/02 10:29:09;;;;;;;1.75;1.60;;;23.70;30.30;;;;;;5089787;28;20033;-73
2021/03/02 10:31:36;;;;;;;1.80;1.27;;;23.70;30.20;;;;;;5090433;28;20036;-74
2021/03/02 10:34:05;;;;;;;4.03;1.58;;;23.80;30.10;;;;;;5090712;28;20020;-74
2021/03/02 10:36:33;;;;;;;0.85;0.50;;;23.80;30.00;;;;;;5089172;28;20394;-74
2021/03/02 10:38:59;;;;;;;2.42;1.02;;;23.80;30.00;;;;;;5090325;28;20020;-74
2021/03/02 10:41:25;;;;;;;1.85;0.60;;;23.90;30.00;;;;;;5089727;28;20051;-74
2021/03/02 10:43:52;;;;;;;0.95;0.75;;;23.90;30.00;;;;;;5079216;28;20040;-74
2021/03/02 10:46:18;;;;;;;1.52;1.00;;;23.90;30.00;;;;;;5090918;28;20077;-74
2021/03/02 10:48:44;;;;;;;2.47;1.63;;;24.00;30.00;;;;;;5090302;28;20028;-74
2021/03/02 10:51:10;;;;;;;0.57;0.47;;;24.00;30.00;;;;;;5089046;28;20021;-74
2021/03/02 10:53:36;;;;;;;1.02;0.52;;;24.00;30.00;;;;;;5091419;28;20039;-74
2021/03/02 10:56:04;;;;;;;1.05;0.88;;;24.00;30.00;;;;;;5089253;28;20446;-74
2021/03/02 10:58:30;;;;;;;1.35;0.57;;;24.00;30.00;;;;;;5091691;28;20105;-74
2021/03/02 11:00:56;;;;;;;0.52;0.40;;;24.00;30.00;;;;;;5089129;28;20500;-74
2021/03/02 11:03:23;;;;;;;1.13;1.00;;;24.10;30.00;;;;;;5088462;28;20032;-74
2021/03/02 11:05:49;;;;;;;0.70;0.70;;;24.10;30.00;;;;;;5090586;28;20048;-74
2021/03/02 11:08:33;;;;;;;0.60;0.52;;;24.10;30.00;;;;;;5086277;28;20051;-74
2021/03/02 11:10:58;;;;;;;3.60;1.38;;;24.10;30.00;;;;;;5087734;28;20036;-74
2021/03/02 11:13:24;;;;;;;0.93;0.80;;;24.10;30.00;;;;;;5088039;28;20088;-74
2021/03/02 11:15:50;;;;;;;1.17;0.68;;;24.20;30.00;;;;;;5091702;28;20027;-73
2021/03/02 11:18:15;;;;;;;0.40;0.40;;;24.20;30.00;;;;;;5089885;28;20124;-74
2021/03/02 11:20:47;;;;;;;1.23;0.85;;;24.30;30.10;;;;;;5091307;28;20028;-74
2021/03/02 11:23:22;;;;;;;0.95;0.95;;;24.20;30.00;;;;;;5091436;28;20028;-74
2021/03/02 11:25:47;;;;;;;2.50;1.27;;;24.20;30.00;;;;;;5083176;28;20123;-74
2021/03/02 11:28:22;;;;;;;3.28;1.02;;;24.20;30.10;;;;;;5083085;28;20115;-74
2021/03/02 11:30:47;;;;;;;2.63;1.23;;;24.30;30.00;;;;;;5060976;28;20040;-74
2021/03/02 11:33:14;;;;;;;1.55;0.70;;;24.30;30.00;;;;;;5090790;28;20027;-74
2021/03/02 11:35:40;;;;;;;1.23;0.98;;;24.30;30.00;;;;;;5084590;28;20025;-74
2021/03/02 11:38:06;;;;;;;2.13;1.88;;;24.30;30.00;;;;;;5085318;28;20047;-74
2021/03/02 11:40:31;;;;;;;0.90;0.63;;;24.30;30.00;;;;;;5091851;28;20028;-74
2021/03/02 11:42:57;;;;;;;2.17;1.20;;;24.30;30.00;;;;;;5091078;28;20151;-74
2021/03/02 11:45:24;;;;;;;0.55;0.32;;;24.30;30.00;;;;;;5093973;28;20161;-74
2021/03/02 11:47:50;;;;;;;1.83;1.08;;;24.30;30.00;;;;;;5094965;28;20498;-74
2021/03/02 11:50:19;;;;;;;5.75;1.17;;;24.30;30.60;;;;;;5092325;28;20111;-74
2021/03/02 11:52:45;;;;;;;1.23;0.47;;;24.40;30.00;;;;;;5075847;28;20038;-74
2021/03/02 11:55:11;;;;;;;1.10;0.70;;;24.40;30.00;;;;;;5094013;28;20070;-74
2021/03/02 11:57:37;;;;;;;0.75;0.50;;;24.40;30.00;;;;;;5094006;28;20024;-74
2021/03/02 12:00:08;;;;;;;1.38;0.57;;;24.40;30.00;;;;;;5094951;28;20020;-74
2021/03/02 12:02:36;;;;;;;2.75;0.73;;;24.50;30.00;;;;;;5092726;28;20047;-74
2021/03/02 12:05:09;;;;;;;0.70;0.55;;;24.50;30.00;;;;;;5094069;28;20075;-74
2021/03/02 12:10:56;;;;;;;0.95;0.57;;;24.50;29.90;;;;;;5091221;28;20039;-74
2021/03/02 12:13:22;;;;;;;12.05;1.15;;;24.50;30.00;;;;;;5092480;28;20054;-74
2021/03/02 12:15:48;;;;;;;4.78;1.33;;;24.50;30.00;;;;;;5094369;28;20016;-74
2021/03/02 12:18:14;;;;;;;1.08;0.98;;;24.50;30.00;;;;;;5093679;28;20032;-74
2021/03/02 12:20:39;;;;;;;1.75;0.77;;;24.60;30.00;;;;;;5093426;28;20035;-74
2021/03/02 12:23:05;;;;;;;1.90;1.35;;;24.60;30.00;;;;;;5093573;28;20036;-74
2021/03/02 12:25:30;;;;;;;0.80;0.80;;;24.60;29.90;;;;;;5086882;28;20043;-74
2021/03/02 12:27:56;;;;;;;0.50;0.50;;;24.60;29.90;;;;;;5086943;28;20027;-74
2021/03/02 12:30:39;;;;;;;1.95;0.82;;;24.70;29.80;;;;;;5092745;28;20206;-74
2021/03/02 12:33:05;;;;;;;2.38;1.30;;;24.80;29.80;;;;;;5076306;28;20020;-74
2021/03/02 12:35:31;;;;;;;2.55;1.40;;;24.80;29.80;;;;;;5093794;28;20078;-74
2021/03/02 12:37:56;;;;;;;1.95;1.20;;;24.80;29.80;;;;;;5093197;28;20103;-73
2021/03/02 12:40:25;;;;;;;3.08;0.43;;;24.90;29.80;;;;;;5091590;28;20500;-73
2021/03/02 12:42:50;;;;;;;0.43;0.43;;;24.90;29.70;;;;;;5094594;28;20027;-73
2021/03/02 12:48:38;;;;;;;0.65;0.65;;;24.90;29.70;;;;;;5094692;28;20154;-74
2021/03/02 12:51:05;;;;;;;2.20;1.30;;;25.00;29.70;;;;;;5092533;28;20110;-74
2021/03/02 12:53:40;;;;;;;1.08;0.52;;;25.00;29.60;;;;;;5091929;28;20140;-73
2021/03/02 12:56:06;;;;;;;5.18;1.10;;;25.10;29.60;;;;;;5092350;28;20384;-74
2021/03/02 12:58:31;;;;;;;1.05;0.80;;;25.10;29.60;;;;;;5094320;28;20031;-73
2021/03/02 13:00:57;;;;;;;0.25;0.25;;;25.10;29.60;;;;;;5091104;28;20032;-74